Time;durP1;ratioP1;P1;durP2;ratioP2;P2;SDS_P1;SDS_P2;PMS_P1;PMS_P2;Temp;Humidity;BMP_temperature;BMP_pressure;BME280_temperature;BME280_humidity;BME280_pressure;Samples;Min_cycle;Max_cycle;Signal;HPM_P1;HPM_P2
2023/03/07 00:01:38;;;;;;;88.47;78.93;;;;;;;3.92;56.72;97897.41;5093862;28;20554;-46
2023/03/07 00:04:06;;;;;;;105.90;89.97;;;;;;;3.88;56.43;97896.16;5112208;28;20468;-46
2023/03/07 00:06:33;;;;;;;155.05;138.95;;;;;;;3.84;57.05;97899.28;5093734;28;20084;-46
2023/03/07 00:09:01;;;;;;;89.43;80.28;;;;;;;3.75;57.69;97896.78;5112133;28;20050;-45
2023/03/07 00:11:30;;;;;;;46.70;35.72;;;;;;;3.74;56.75;97894.34;5112076;28;20072;-46
2023/03/07 00:13:56;;;;;;;56.72;38.33;;;;;;;3.79;56.19;97894.66;5112097;28;20072;-46
2023/03/07 00:16:23;;;;;;;42.08;33.47;;;;;;;3.76;55.80;97893.22;5112042;28;20106;-46
2023/03/07 00:18:55;;;;;;;71.15;63.67;;;;;;;3.69;56.36;97888.91;5112100;28;20156;-47
2023/03/07 00:21:22;;;;;;;70.07;61.53;;;;;;;3.71;56.14;97895.53;5093628;28;20028;-45
2023/03/07 00:24:11;;;;;;;69.75;62.08;;;;;;;3.60;56.67;97898.53;5111888;28;20050;-45
2023/03/07 00:26:46;;;;;;;87.82;78.65;;;;;;;3.51;56.89;97891.81;5111980;28;20103;-46
2023/03/07 00:29:18;;;;;;;77.55;68.57;;;;;;;3.32;57.05;97903.44;5116138;28;20118;-45
2023/03/07 00:31:55;;;;;;;72.07;63.38;;;;;;;3.36;57.52;97902.94;5114435;28;20119;-47
2023/03/07 00:34:23;;;;;;;45.25;40.35;;;;;;;3.41;57.24;97897.22;5097618;28;20092;-46
2023/03/07 00:36:52;;;;;;;81.45;67.95;;;;;;;3.54;57.00;97891.44;5097512;28;20114;-46
2023/03/07 00:39:29;;;;;;;129.50;116.70;;;;;;;3.61;57.42;97887.19;5115918;28;20035;-47
2023/03/07 00:42:01;;;;;;;114.55;102.90;;;;;;;3.35;57.42;97892.75;5115782;28;20023;-45
2023/03/07 00:44:34;;;;;;;102.55;92.80;;;;;;;3.01;58.91;97886.16;5115591;28;20059;-46
2023/03/07 00:47:09;;;;;;;163.05;145.77;;;;;;;2.76;59.59;97888.91;5115624;28;20024;-46
2023/03/07 00:49:41;;;;;;;109.22;98.07;;;;;;;2.64;60.03;97895.44;5115685;28;20027;-46
2023/03/07 00:52:16;;;;;;;64.22;54.25;;;;;;;2.76;59.23;97886.31;5115633;28;20027;-47
2023/03/07 00:54:52;;;;;;;1502.25;878.95;;;;;;;2.71;59.11;97885.19;5097253;28;20063;-47
2023/03/07 00:57:24;;;;;;;1542.95;944.55;;;;;;;2.83;60.34;97885.63;5115285;28;20035;-45
2023/03/07 00:59:55;;;;;;;1999.90;999.90;;;;;;;3.11;61.60;97876.38;5097082;28;20213;-46
2023/03/07 01:02:26;;;;;;;769.80;686.67;;;;;;;3.50;60.66;97865.06;5115380;28;20031;-47
2023/03/07 01:05:00;;;;;;;221.95;190.52;;;;;;;3.32;59.07;97870.56;5115427;28;20443;-46
2023/03/07 01:07:34;;;;;;;329.50;295.17;;;;;;;3.04;60.32;97867.69;5115301;28;20026;-46
2023/03/07 01:10:03;;;;;;;196.07;176.07;;;;;;;3.03;61.73;97866.06;5115362;28;20049;-45
2023/03/07 01:12:34;;;;;;;190.57;170.48;;;;;;;3.22;61.03;97866.56;5096914;28;20050;-46
2023/03/07 01:15:05;;;;;;;178.85;159.13;;;;;;;3.37;59.56;97867.44;5115036;28;20031;-46
2023/03/07 01:17:33;;;;;;;212.45;189.20;;;;;;;3.40;59.61;97856.69;5115049;28;20028;-45
2023/03/07 01:20:05;;;;;;;152.25;127.57;;;;;;;3.42;59.87;97840.97;5115119;28;20030;-47
2023/03/07 01:22:32;;;;;;;204.07;182.13;;;;;;;3.58;59.16;97840.81;5115049;28;20034;-46
2023/03/07 01:25:05;;;;;;;147.90;132.55;;;;;;;3.50;58.30;97843.50;5115054;28;20031;-45
2023/03/07 01:27:32;;;;;;;131.13;116.50;;;;;;;3.53;59.20;97845.75;5096474;28;20454;-45
2023/03/07 01:29:58;;;;;;;109.90;98.30;;;;;;;3.54;58.51;97839.56;5096612;28;20024;-45
2023/03/07 01:32:31;;;;;;;94.35;84.15;;;;;;;3.30;58.99;97841.41;5092486;28;20047;-46
2023/03/07 01:34:59;;;;;;;88.63;79.05;;;;;;;2.89;59.70;97844.28;5094539;28;20036;-46
2023/03/07 01:37:24;;;;;;;78.28;69.45;;;;;;;2.83;60.61;97846.75;5094422;28;20031;-45
2023/03/07 01:39:54;;;;;;;112.55;101.13;;;;;;;2.77;61.57;97838.66;5092926;28;20024;-46
2023/03/07 01:42:23;;;;;;;98.43;88.63;;;;;;;2.83;61.10;97844.97;5092933;28;20074;-46
2023/03/07 01:45:05;;;;;;;77.75;69.57;;;;;;;2.69;60.98;97845.69;5094236;28;20028;-46
2023/03/07 01:47:58;;;;;;;74.40;66.25;;;;;;;2.54;60.94;97854.19;5092624;28;20047;-46
2023/03/07 01:50:33;;;;;;;88.72;72.47;;;;;;;2.46;60.70;97849.06;5092792;28;20488;-46
2023/03/07 01:53:05;;;;;;;72.20;64.63;;;;;;;2.45;61.15;97857.78;5092788;28;20035;-46
2023/03/07 01:55:36;;;;;;;96.55;87.10;;;;;;;2.28;60.72;97854.47;5093027;28;20032;-46
2023/03/07 01:58:29;;;;;;;86.32;77.30;;;;;;;1.98;61.94;97854.25;5092654;28;20028;-46
2023/03/07 02:01:30;;;;;;;83.05;74.38;;;;;;;1.90;62.88;97851.69;5093945;28;20031;-46
2023/03/07 02:04:50;;;;;;;88.50;79.63;;;;;;;1.66;62.88;97855.13;5093779;28;20023;-46
2023/03/07 02:07:52;;;;;;;103.22;93.00;;;;;;;1.62;64.27;97856.41;5093621;28;20032;-46
2023/03/07 02:10:27;;;;;;;100.05;89.75;;;;;;;1.92;65.46;97841.97;5093746;28;20516;-45
2023/03/07 02:12:54;;;;;;;90.25;81.25;;;;;;;2.06;63.85;97850.03;5092328;28;20040;-46
2023/03/07 02:15:26;;;;;;;717.55;571.83;;;;;;;1.94;63.43;97845.19;5092330;28;20027;-46
2023/03/07 02:17:58;;;;;;;173.20;116.32;;;;;;;2.03;63.35;97843.38;5093553;28;20451;-46
2023/03/07 02:21:00;;;;;;;106.65;80.80;;;;;;;2.31;62.44;97835.19;5092234;28;20390;-47
2023/03/07 02:24:03;;;;;;;49.40;33.88;;;;;;;2.28;60.27;97838.13;5092172;28;20036;-47
2023/03/07 02:26:58;;;;;;;72.93;54.05;;;;;;;2.28;61.79;97838.13;5088907;28;20028;-46
2023/03/07 02:29:34;;;;;;;214.57;191.45;;;;;;;2.34;60.81;97829.69;5092086;28;20028;-47
2023/03/07 02:32:09;;;;;;;93.28;83.18;;;;;;;2.59;62.33;97823.41;5098612;28;20049;-46
2023/03/07 02:34:43;;;;;;;180.43;160.27;;;;;;;2.71;61.66;97817.84;5113674;28;20049;-46
2023/03/07 02:37:54;;;;;;;211.52;188.70;;;;;;;2.91;60.97;97811.22;5113569;28;20016;-46
2023/03/07 02:40:34;;;;;;;178.68;159.73;;;;;;;2.83;61.34;97794.94;5095041;28;20122;-47
2023/03/07 02:43:08;;;;;;;132.10;118.60;;;;;;;2.71;61.17;97797.13;5095186;28;20034;-46
2023/03/07 02:46:05;;;;;;;444.45;382.05;;;;;;;2.71;62.45;97794.53;5112930;28;20043;-47
2023/03/07 02:48:43;;;;;;;364.25;326.02;;;;;;;2.55;62.42;97790.25;5095004;28;20027;-47
2023/03/07 02:51:16;;;;;;;342.20;307.92;;;;;;;2.37;62.99;97788.75;5112856;28;20520;-47
2023/03/07 02:53:49;;;;;;;180.35;162.10;;;;;;;2.34;63.25;97786.47;5113281;28;20427;-46
2023/03/07 02:56:33;;;;;;;160.88;144.85;;;;;;;2.36;63.43;97773.38;5113194;28;20066;-46
2023/03/07 02:59:24;;;;;;;1768.65;999.90;;;;;;;2.35;62.83;97776.94;5113138;28;20444;-45
2023/03/07 03:02:12;;;;;;;1999.90;999.90;;;;;;;2.15;63.94;97777.38;5113117;28;20032;-45
2023/03/07 03:04:40;;;;;;;1838.68;999.90;;;;;;;2.18;65.06;97784.78;5094777;28;20023;-46
2023/03/07 03:07:24;;;;;;;1999.90;999.90;;;;;;;2.39;64.60;97783.38;5112920;28;20031;-47
2023/03/07 03:09:58;;;;;;;686.25;590.28;;;;;;;2.33;63.03;97784.06;5113008;28;20012;-45
2023/03/07 03:12:36;;;;;;;269.77;232.25;;;;;;;2.17;62.93;97780.59;5094640;28;20126;-47
2023/03/07 03:15:11;;;;;;;238.05;212.10;;;;;;;1.95;62.93;97779.56;5112947;28;20027;-45
2023/03/07 03:17:43;;;;;;;185.65;166.52;;;;;;;1.78;63.33;97775.41;5094585;28;20028;-45
2023/03/07 03:20:18;;;;;;;272.90;245.65;;;;;;;1.52;64.07;97770.47;5112822;28;20027;-45
2023/03/07 03:23:05;;;;;;;238.40;214.43;;;;;;;1.45;64.82;97764.31;5112535;28;20016;-45
2023/03/07 03:25:38;;;;;;;228.60;205.15;;;;;;;1.34;63.88;97755.13;5094373;28;20031;-46
2023/03/07 03:28:19;;;;;;;300.95;269.95;;;;;;;1.23;65.35;97753.72;5112650;28;20068;-47
2023/03/07 03:31:16;;;;;;;287.67;257.77;;;;;;;1.31;65.62;97752.88;5112452;28;20048;-46
2023/03/07 03:33:44;;;;;;;193.68;173.15;;;;;;;1.42;65.23;97751.75;5112269;28;20066;-46
2023/03/07 03:36:15;;;;;;;174.40;155.73;;;;;;;1.45;65.28;97741.88;5112496;28;20034;-45
2023/03/07 03:38:42;;;;;;;114.63;102.13;;;;;;;1.37;64.69;97749.66;5094259;28;20114;-45
2023/03/07 03:41:17;;;;;;;120.40;108.43;;;;;;;1.31;64.95;97750.28;5112348;28;20030;-45
2023/03/07 03:43:44;;;;;;;135.95;121.85;;;;;;;1.29;65.20;97747.88;5094130;28;20401;-45
2023/03/07 03:46:10;;;;;;;144.60;128.13;;;;;;;1.22;64.89;97744.34;5094335;28;20043;-45
2023/03/07 03:48:40;;;;;;;228.98;205.20;;;;;;;1.25;65.09;97740.59;5094040;28;20026;-45
2023/03/07 03:51:18;;;;;;;98.85;88.25;;;;;;;1.33;65.25;97738.03;5112186;28;20024;-45
2023/03/07 03:54:02;;;;;;;113.82;102.28;;;;;;;1.22;64.40;97730.63;5112246;28;20105;-46
2023/03/07 03:56:30;;;;;;;115.85;103.82;;;;;;;1.23;65.72;97740.78;5112154;28;20015;-45
2023/03/07 03:59:11;;;;;;;82.68;74.10;;;;;;;1.31;65.58;97733.03;5112217;28;20020;-47
2023/03/07 04:01:58;;;;;;;80.82;72.93;;;;;;;1.30;65.09;97725.44;5111395;28;20016;-47
2023/03/07 04:04:29;;;;;;;109.38;98.72;;;;;;;1.58;66.61;97725.84;5077176;28;20028;-46
2023/03/07 04:07:06;;;;;;;134.48;120.45;;;;;;;1.70;65.27;97721.09;5112239;28;20046;-47
2023/03/07 04:09:41;;;;;;;140.80;126.75;;;;;;;1.71;64.12;97725.28;5112053;28;20016;-45
2023/03/07 04:12:15;;;;;;;184.15;165.70;;;;;;;1.59;63.86;97735.22;5112085;28;20088;-45
2023/03/07 04:14:55;;;;;;;120.10;107.47;;;;;;;1.49;64.05;97732.00;5112103;28;20012;-46
2023/03/07 04:17:35;;;;;;;107.63;96.47;;;;;;;1.34;63.92;97734.47;5093690;28;20123;-47
2023/03/07 04:20:18;;;;;;;93.20;83.78;;;;;;;1.22;63.73;97738.38;5093677;28;20031;-46
2023/03/07 04:22:55;;;;;;;114.15;102.95;;;;;;;1.12;64.96;97728.19;5111961;28;20020;-47
2023/03/07 04:25:36;;;;;;;168.40;151.45;;;;;;;1.45;66.17;97730.72;5111943;28;20107;-47
2023/03/07 04:28:11;;;;;;;135.52;122.57;;;;;;;1.55;64.57;97728.75;5111881;28;20080;-45
2023/03/07 04:30:45;;;;;;;86.68;78.15;;;;;;;1.31;63.37;97727.84;5111838;28;20104;-45
2023/03/07 04:33:26;;;;;;;129.73;116.65;;;;;;;1.18;64.10;97712.03;5108817;28;20114;-47
2023/03/07 04:36:01;;;;;;;114.32;102.47;;;;;;;1.22;64.62;97718.50;5111731;28;20469;-47
2023/03/07 04:38:44;;;;;;;212.25;190.45;;;;;;;1.13;64.18;97722.88;5111834;28;20076;-46
2023/03/07 04:41:22;;;;;;;189.27;169.70;;;;;;;1.10;64.56;97715.44;5111719;28;20421;-46
2023/03/07 04:44:07;;;;;;;117.93;100.68;;;;;;;1.16;64.51;97726.91;5111694;28;20020;-47
2023/03/07 04:46:46;;;;;;;102.65;80.47;;;;;;;1.33;63.84;97720.75;5093310;28;20024;-47
2023/03/07 04:49:12;;;;;;;199.10;170.40;;;;;;;1.38;63.76;97721.03;5111802;28;20069;-46
2023/03/07 04:51:39;;;;;;;70.57;53.95;;;;;;;1.41;62.99;97727.66;5093373;28;20034;-45
2023/03/07 04:54:17;;;;;;;104.32;88.50;;;;;;;1.32;62.65;97711.34;5093686;28;20024;-48
2023/03/07 04:56:52;;;;;;;185.73;151.20;;;;;;;1.33;62.95;97701.84;5093361;28;20020;-46
2023/03/07 04:59:24;;;;;;;93.97;80.20;;;;;;;1.35;62.74;97705.88;5093371;28;20028;-45
2023/03/07 05:02:10;;;;;;;108.70;80.60;;;;;;;1.40;63.36;97703.56;5093333;28;20035;-45
2023/03/07 05:04:38;;;;;;;67.75;49.60;;;;;;;1.49;62.36;97695.78;5111752;28;20443;-46
2023/03/07 05:07:06;;;;;;;177.25;159.70;;;;;;;1.52;62.66;97698.06;5093242;28;20028;-45
2023/03/07 05:09:32;;;;;;;166.93;149.80;;;;;;;1.44;62.97;97700.69;5093287;28;20019;-45
2023/03/07 05:12:01;;;;;;;135.93;122.13;;;;;;;1.32;63.26;97695.84;5111571;28;20016;-45
2023/03/07 05:14:28;;;;;;;175.55;156.13;;;;;;;1.18;64.08;97691.38;5114338;28;20027;-45
2023/03/07 05:16:56;;;;;;;208.55;187.60;;;;;;;0.93;63.83;97688.84;5115221;28;20020;-46
2023/03/07 05:19:23;;;;;;;276.98;248.50;;;;;;;0.69;64.78;97688.84;5115200;28;20051;-45
2023/03/07 05:21:50;;;;;;;191.38;171.55;;;;;;;0.49;65.84;97686.59;5096780;28;20030;-45
2023/03/07 05:24:17;;;;;;;252.05;224.88;;;;;;;0.53;66.87;97685.28;5096756;28;20107;-45
2023/03/07 05:26:44;;;;;;;257.88;232.20;;;;;;;0.62;67.03;97682.72;5114948;28;20067;-45
2023/03/07 05:29:13;;;;;;;198.98;178.15;;;;;;;0.82;67.59;97675.44;5114925;28;20159;-45
2023/03/07 05:31:40;;;;;;;210.07;189.55;;;;;;;1.05;67.13;97671.22;5096377;28;20062;-45
2023/03/07 05:34:09;;;;;;;201.50;179.85;;;;;;;1.10;66.14;97662.97;5074275;28;20028;-45
2023/03/07 05:36:37;;;;;;;201.73;180.55;;;;;;;0.96;65.71;97661.84;5074118;28;20020;-45
2023/03/07 05:39:04;;;;;;;192.95;172.98;;;;;;;0.82;66.01;97665.91;5074176;28;20028;-45
2023/03/07 05:41:33;;;;;;;153.38;137.52;;;;;;;0.81;66.85;97658.34;5072845;28;20033;-46
2023/03/07 05:44:16;;;;;;;187.90;169.60;;;;;;;0.76;66.53;97658.81;5072677;28;20087;-45
2023/03/07 05:46:43;;;;;;;157.25;140.23;;;;;;;0.75;66.91;97657.22;5072271;28;20067;-45
2023/03/07 05:49:10;;;;;;;287.23;256.77;;;;;;;0.61;66.26;97650.94;5074016;28;20028;-45
2023/03/07 05:51:37;;;;;;;236.07;212.50;;;;;;;0.77;67.52;97652.69;5072584;28;20070;-45
2023/03/07 05:54:04;;;;;;;210.98;187.73;;;;;;;1.00;67.10;97640.69;5073884;28;20059;-45
2023/03/07 05:56:31;;;;;;;462.80;417.02;;;;;;;1.11;67.19;97629.22;5073841;28;20462;-45
2023/03/07 05:58:58;;;;;;;318.08;287.00;;;;;;;1.06;65.43;97628.09;5073824;28;20107;-45
2023/03/07 06:01:26;;;;;;;268.70;241.95;;;;;;;0.82;65.45;97636.69;5072399;28;20025;-45
2023/03/07 06:03:54;;;;;;;370.15;333.13;;;;;;;0.65;66.13;97638.50;5073699;28;20090;-45
2023/03/07 06:06:21;;;;;;;247.18;221.93;;;;;;;0.67;67.00;97639.16;5073530;28;20111;-46
2023/03/07 06:08:47;;;;;;;332.17;288.15;;;;;;;1.03;68.50;97631.81;5073573;28;20087;-45
2023/03/07 06:11:14;;;;;;;224.65;200.00;;;;;;;1.43;68.01;97634.41;5072250;28;20043;-45
2023/03/07 06:13:41;;;;;;;341.38;305.42;;;;;;;1.53;66.44;97641.03;5073487;28;20086;-45
2023/03/07 06:16:08;;;;;;;171.32;153.30;;;;;;;1.38;64.47;97645.28;5073488;28;20564;-44
2023/03/07 06:18:35;;;;;;;242.10;216.45;;;;;;;1.27;64.99;97648.19;5073432;28;20081;-45
2023/03/07 06:21:05;;;;;;;729.55;541.15;;;;;;;1.58;66.21;97645.69;5073299;28;20048;-45
2023/03/07 06:23:34;;;;;;;304.65;272.38;;;;;;;2.02;65.31;97650.28;5073212;28;20021;-45
2023/03/07 06:26:03;;;;;;;117.13;105.03;;;;;;;2.27;63.00;97656.09;5072405;28;20024;-45
2023/03/07 06:28:30;;;;;;;264.58;236.63;;;;;;;2.10;61.26;97652.03;5073089;28;20029;-45
2023/03/07 06:30:57;;;;;;;172.48;153.55;;;;;;;1.90;61.06;97659.41;5073105;28;20425;-45
2023/03/07 06:33:24;;;;;;;171.50;149.07;;;;;;;1.90;61.67;97664.59;5101710;28;20039;-45
2023/03/07 06:35:52;;;;;;;157.80;137.13;;;;;;;2.15;61.96;97653.13;5113650;28;20027;-45
2023/03/07 06:38:18;;;;;;;175.95;139.13;;;;;;;2.80;61.95;97656.19;5113615;28;20016;-45
2023/03/07 06:40:58;;;;;;;147.05;112.68;;;;;;;3.42;59.92;97654.22;5095269;28;20080;-45
2023/03/07 06:43:25;;;;;;;135.05;116.78;;;;;;;3.63;58.49;97659.50;5113474;28;20449;-45
2023/03/07 06:45:53;;;;;;;93.65;82.72;;;;;;;3.66;57.03;97653.94;5113434;28;20392;-45
2023/03/07 06:48:20;;;;;;;123.80;93.15;;;;;;;3.40;56.93;97646.63;5095046;28;20118;-45
2023/03/07 06:50:47;;;;;;;238.48;198.90;;;;;;;3.10;58.05;97651.00;5095168;28;20102;-45
2023/03/07 06:53:14;;;;;;;173.63;142.45;;;;;;;3.17;58.69;97641.53;5113360;28;20098;-45
2023/03/07 06:55:41;;;;;;;123.90;98.35;;;;;;;3.25;57.92;97627.69;5113196;28;20027;-45
2023/03/07 06:58:08;;;;;;;135.65;114.00;;;;;;;3.12;57.45;97623.13;5113328;28;20023;-45
2023/03/07 07:00:39;;;;;;;146.90;131.38;;;;;;;3.08;58.65;97629.66;5113192;28;20366;-45
2023/03/07 07:03:05;;;;;;;86.85;64.85;;;;;;;3.37;58.01;97647.00;5112913;28;20103;-45
2023/03/07 07:05:32;;;;;;;105.55;84.43;;;;;;;3.64;57.33;97655.91;5113093;28;20031;-45
2023/03/07 07:07:59;;;;;;;82.88;69.85;;;;;;;4.00;57.08;97660.31;5112972;28;20046;-45
2023/03/07 07:10:27;;;;;;;78.15;59.20;;;;;;;4.29;55.36;97666.41;5095010;28;20023;-45
2023/03/07 07:12:55;;;;;;;126.32;105.95;;;;;;;4.48;54.95;97665.78;5113010;28;20024;-45
2023/03/07 07:15:23;;;;;;;79.30;62.50;;;;;;;5.05;54.84;97669.22;5112865;28;20027;-45
2023/03/07 07:17:53;;;;;;;826.67;573.47;;;;;;;6.34;54.04;97671.19;5112841;28;20063;-45
2023/03/07 07:20:23;;;;;;;293.55;208.93;;;;;;;7.48;51.43;97666.69;5112816;28;20031;-45
2023/03/07 07:22:50;;;;;;;424.67;354.00;;;;;;;8.35;48.64;97653.22;5112746;28;20452;-45
2023/03/07 07:25:16;;;;;;;268.95;238.68;;;;;;;8.95;47.27;97650.19;5094465;28;20027;-45
2023/03/07 07:27:43;;;;;;;1999.90;999.90;;;;;;;9.39;44.57;97651.75;5112600;28;20499;-45
2023/03/07 07:30:12;;;;;;;1919.70;999.38;;;;;;;9.43;43.03;97649.50;5094647;28;20034;-45
2023/03/07 07:32:39;;;;;;;798.97;660.25;;;;;;;9.38;41.66;97647.53;5112274;28;20047;-45
2023/03/07 07:35:08;;;;;;;456.17;409.55;;;;;;;9.22;40.96;97650.75;5094296;28;20392;-45
2023/03/07 07:37:35;;;;;;;275.17;245.27;;;;;;;9.10;40.69;97644.63;5112483;28;20023;-45
2023/03/07 07:40:02;;;;;;;148.88;132.32;;;;;;;9.25;40.58;97644.25;5112563;28;20509;-46
2023/03/07 07:42:30;;;;;;;157.50;141.15;;;;;;;9.51;40.76;97638.72;5094222;28;20501;-46
2023/03/07 07:44:57;;;;;;;625.58;560.55;;;;;;;9.34;41.29;97638.53;5112386;28;20061;-46
2023/03/07 07:47:25;;;;;;;342.10;306.80;;;;;;;9.52;40.39;97644.78;5112310;28;20080;-46
2023/03/07 07:49:55;;;;;;;331.65;288.20;;;;;;;9.87;40.53;97644.16;5112292;28;20045;-46
2023/03/07 07:52:42;;;;;;;187.40;167.25;;;;;;;10.06;39.22;97650.16;5094271;28;20077;-46
2023/03/07 07:55:27;;;;;;;71.20;51.22;;;;;;;10.29;38.85;97641.56;5112187;28;20035;-46
2023/03/07 07:58:00;;;;;;;372.23;331.17;;;;;;;10.56;39.26;97624.47;5112234;28;20117;-46
2023/03/07 08:00:27;;;;;;;221.77;199.20;;;;;;;10.94;38.31;97614.53;5112276;28;20273;-46
2023/03/07 08:02:55;;;;;;;139.95;115.28;;;;;;;10.80;38.37;97613.97;5112242;28;20019;-46
2023/03/07 08:05:22;;;;;;;188.75;168.95;;;;;;;10.20;38.97;97610.44;5094117;28;20497;-46
2023/03/07 08:07:49;;;;;;;99.97;77.53;;;;;;;9.78;40.13;97607.78;5112091;28;20176;-46
2023/03/07 08:10:17;;;;;;;509.88;459.92;;;;;;;9.94;40.69;97588.03;5112060;28;20151;-46
2023/03/07 08:12:52;;;;;;;312.33;278.52;;;;;;;10.46;40.15;97592.72;5077022;28;20562;-46
2023/03/07 08:15:20;;;;;;;106.35;87.60;;;;;;;11.24;39.57;97587.34;5112482;28;20065;-46
2023/03/07 08:17:50;;;;;;;54.83;36.17;;;;;;;12.12;37.77;97566.94;5112010;28;20028;-46
2023/03/07 08:20:18;;;;;;;99.03;53.25;;;;;;;12.84;36.99;97574.09;5093798;28;20026;-46
2023/03/07 08:22:48;;;;;;;50.42;33.08;;;;;;;13.34;35.92;97577.63;5112340;28;20431;-47
2023/03/07 08:25:21;;;;;;;62.80;37.72;;;;;;;13.51;34.76;97588.13;5093663;28;20028;-46
2023/03/07 08:27:53;;;;;;;67.40;38.65;;;;;;;13.77;34.14;97582.09;5111858;28;20447;-46
2023/03/07 08:30:23;;;;;;;81.80;43.88;;;;;;;13.93;34.35;97590.16;5093491;28;20028;-47
2023/03/07 08:32:52;;;;;;;54.45;34.67;;;;;;;13.93;33.63;97587.53;5089999;28;20051;-47
2023/03/07 08:35:20;;;;;;;46.47;30.92;;;;;;;14.10;34.56;97582.91;5091574;28;20024;-47
2023/03/07 08:37:48;;;;;;;273.35;244.93;;;;;;;14.76;32.84;97566.81;5090242;28;20400;-47
2023/03/07 08:40:24;;;;;;;148.93;132.45;;;;;;;14.22;33.31;97569.56;5091470;28;20107;-47
2023/03/07 08:42:54;;;;;;;145.93;115.90;;;;;;;13.49;34.59;97575.19;5091478;28;20031;-47
2023/03/07 08:45:23;;;;;;;649.90;588.42;;;;;;;13.09;35.92;97581.50;5091531;28;20020;-47
2023/03/07 08:47:54;;;;;;;1999.90;999.90;;;;;;;12.94;36.23;97574.22;5090534;28;20063;-47
2023/03/07 08:50:26;;;;;;;1548.35;921.15;;;;;;;12.61;36.20;97574.25;5095379;28;20024;-46
2023/03/07 08:52:54;;;;;;;1165.47;839.33;;;;;;;12.50;36.71;97576.75;5095365;28;20554;-46
2023/03/07 08:55:21;;;;;;;425.30;334.67;;;;;;;12.54;36.66;97580.50;5095273;28;20149;-47
2023/03/07 08:57:48;;;;;;;525.53;388.02;;;;;;;12.55;36.54;97582.06;5095311;28;20032;-46
2023/03/07 09:00:16;;;;;;;197.13;135.98;;;;;;;12.62;37.09;97573.25;5095235;28;20049;-46
2023/03/07 09:02:43;;;;;;;164.90;121.50;;;;;;;13.63;36.57;97559.78;5095076;28;20028;-46
2023/03/07 09:05:11;;;;;;;94.30;60.38;;;;;;;15.40;34.41;97543.09;5093743;28;20405;-46
2023/03/07 09:07:38;;;;;;;61.15;51.63;;;;;;;16.89;30.57;97546.66;5093642;28;20105;-46
2023/03/07 09:10:10;;;;;;;60.85;48.10;;;;;;;17.38;29.80;97532.66;5094967;28;20389;-44
2023/03/07 09:12:36;;;;;;;76.47;68.18;;;;;;;17.13;29.63;97530.94;5095051;28;20042;-45
2023/03/07 09:15:08;;;;;;;92.90;81.47;;;;;;;17.46;29.54;97532.09;5093560;28;20501;-46
2023/03/07 09:17:44;;;;;;;123.10;109.65;;;;;;;17.89;29.49;97521.03;5093505;28;20032;-45
2023/03/07 09:20:19;;;;;;;142.18;127.15;;;;;;;18.28;28.82;97525.50;5093659;28;20024;-45
2023/03/07 09:22:58;;;;;;;114.28;102.63;;;;;;;19.18;28.40;97518.75;5094972;28;20032;-45
2023/03/07 09:25:39;;;;;;;105.32;94.97;;;;;;;19.89;27.31;97524.97;5094596;28;20069;-45
2023/03/07 09:28:08;;;;;;;438.00;395.83;;;;;;;20.32;26.04;97524.03;5094538;28;20028;-45
2023/03/07 09:30:40;;;;;;;252.88;227.90;;;;;;;20.04;25.66;97521.31;5093401;28;20058;-45
2023/03/07 09:33:07;;;;;;;159.35;143.60;;;;;;;19.56;26.33;97524.13;5103762;28;20039;-44
2023/03/07 09:35:43;;;;;;;309.65;282.27;;;;;;;18.61;27.66;97521.19;5096502;28;20039;-46
2023/03/07 09:38:11;;;;;;;714.47;645.45;;;;;;;17.82;27.92;97533.75;5114701;28;20065;-44
2023/03/07 09:40:48;;;;;;;459.15;414.80;;;;;;;16.67;29.04;97533.69;5079609;28;20039;-45
2023/03/07 09:44:02;;;;;;;879.72;777.83;;;;;;;15.90;30.31;97537.16;5096465;28;20023;-44
2023/03/07 09:46:54;;;;;;;1999.90;999.90;;;;;;;15.72;31.01;97541.09;5093716;28;20036;-44
2023/03/07 09:50:06;;;;;;;1999.90;999.90;;;;;;;15.65;31.59;97545.78;5114850;28;20106;-45
2023/03/07 09:52:51;;;;;;;1999.90;999.90;;;;;;;16.02;32.08;97550.13;5114537;28;20030;-44
2023/03/07 09:55:34;;;;;;;1999.90;999.90;;;;;;;17.02;30.72;97551.38;5096147;28;20493;-45
2023/03/07 09:58:42;;;;;;;1126.82;759.85;;;;;;;18.06;29.05;97547.94;5079287;28;20463;-44
2023/03/07 10:01:31;;;;;;;916.67;695.42;;;;;;;19.04;28.51;97545.22;5098289;28;20100;-46
2023/03/07 10:04:22;;;;;;;1999.90;999.90;;;;;;;19.46;27.16;97525.03;5095947;28;20023;-45
2023/03/07 10:07:12;;;;;;;1895.45;999.90;;;;;;;20.69;26.56;97528.50;5093423;28;20134;-45
2023/03/07 10:09:39;;;;;;;1436.18;999.90;;;;;;;21.29;24.54;97521.47;5095806;28;20023;-45
2023/03/07 10:12:43;;;;;;;580.65;522.60;;;;;;;21.20;23.47;97508.03;5095857;28;20244;-45
2023/03/07 10:15:50;;;;;;;408.67;351.13;;;;;;;20.16;24.54;97510.19;5114137;28;20111;-45
2023/03/07 10:19:18;;;;;;;159.55;142.05;;;;;;;19.52;25.63;97515.13;5093106;28;20046;-46
2023/03/07 10:22:26;;;;;;;253.35;225.75;;;;;;;20.35;25.55;97512.81;5113905;28;20393;-45
2023/03/07 10:25:24;;;;;;;173.73;145.98;;;;;;;20.51;24.67;97500.78;5095679;28;20027;-45
2023/03/07 10:27:59;;;;;;;199.90;179.00;;;;;;;20.27;24.51;97500.16;5113906;28;20020;-45
2023/03/07 10:31:01;;;;;;;142.20;122.07;;;;;;;20.22;24.54;97479.72;5113920;28;20062;-45
2023/03/07 10:33:30;;;;;;;158.88;129.60;;;;;;;20.54;24.19;97475.41;5113001;28;20077;-46
2023/03/07 10:36:38;;;;;;;852.33;765.50;;;;;;;20.96;24.34;97478.91;5113634;28;20575;-46
2023/03/07 10:39:43;;;;;;;125.80;113.60;;;;;;;20.40;23.77;97471.94;5104793;28;20420;-46
2023/03/07 10:42:12;;;;;;;151.43;137.02;;;;;;;19.47;24.68;97475.25;5095275;28;20035;-44
2023/03/07 10:44:40;;;;;;;152.65;137.27;;;;;;;19.01;25.16;97475.88;5113579;28;20072;-45
2023/03/07 10:47:20;;;;;;;216.52;196.23;;;;;;;18.36;25.95;97464.56;5095076;28;20110;-44
2023/03/07 10:49:49;;;;;;;146.70;131.35;;;;;;;17.64;26.90;97472.31;5113502;28;20035;-45
2023/03/07 10:52:22;;;;;;;192.10;143.60;;;;;;;16.99;27.62;97453.06;5113555;28;20047;-45
2023/03/07 10:54:49;;;;;;;170.20;152.45;;;;;;;16.83;27.83;97469.03;5113362;28;20027;-45
2023/03/07 10:57:44;;;;;;;151.35;135.48;;;;;;;17.03;27.99;97467.38;5113267;28;20020;-45
2023/03/07 11:00:29;;;;;;;126.65;112.43;;;;;;;17.51;27.68;97465.78;5113164;28;20086;-45
2023/03/07 11:02:56;;;;;;;207.75;140.88;;;;;;;17.74;27.15;97461.63;5094846;28;20039;-45
2023/03/07 11:05:46;;;;;;;120.57;107.13;;;;;;;17.48;27.36;97473.47;5113112;28;20062;-44
2023/03/07 11:08:34;;;;;;;801.88;718.83;;;;;;;17.03;27.92;97480.63;5094950;28;20488;-45
2023/03/07 11:11:03;;;;;;;774.58;698.88;;;;;;;16.89;28.77;97480.41;5094445;28;20036;-45
2023/03/07 11:13:30;;;;;;;393.63;353.45;;;;;;;17.04;28.58;97472.38;5112997;28;20554;-45
2023/03/07 11:16:31;;;;;;;776.47;648.50;;;;;;;17.22;27.98;97473.63;5112950;28;20051;-45
2023/03/07 11:18:58;;;;;;;891.60;770.42;;;;;;;17.69;27.75;97472.28;5078980;28;20089;-45
2023/03/07 11:21:32;;;;;;;1413.35;955.15;;;;;;;17.82;27.45;97468.19;5094470;28;20040;-45
2023/03/07 11:24:24;;;;;;;695.38;621.97;;;;;;;17.74;27.54;97479.41;5112878;28;20435;-45
2023/03/07 11:26:56;;;;;;;148.90;133.40;;;;;;;18.12;27.21;97480.47;5112803;28;20374;-45
2023/03/07 11:29:24;;;;;;;174.63;155.32;;;;;;;19.26;26.79;97477.41;5112959;28;20126;-45
2023/03/07 11:31:57;;;;;;;72.40;64.72;;;;;;;20.53;25.18;97479.97;5112577;28;20024;-45
2023/03/07 11:34:31;;;;;;;103.70;92.38;;;;;;;20.34;24.91;97481.91;5111752;28;20043;-45
2023/03/07 11:37:40;;;;;;;84.05;74.05;;;;;;;19.86;25.02;97474.16;5112567;28;20032;-45
2023/03/07 11:40:40;;;;;;;90.47;78.53;;;;;;;19.61;25.46;97457.50;5112571;28;20038;-45
2023/03/07 11:43:55;;;;;;;78.47;69.95;;;;;;;19.36;25.47;97445.34;5105591;28;20517;-45
2023/03/07 11:46:48;;;;;;;59.78;51.50;;;;;;;18.81;25.68;97439.69;5112301;28;20024;-44